Time;durP1;ratioP1;P1;durP2;ratioP2;P2;SDS_P1;SDS_P2;PMS_P1;PMS_P2;Temp;Humidity;BMP_temperature;BMP_pressure;BME280_temperature;BME280_humidity;BME280_pressure;Samples;Min_cycle;Max_cycle;Signal;HPM_P1;HPM_P2
2020/12/15 00:01:46;;;;;;;3.63;2.38;;;;;;;5.97;85.13;99146.03;5087830;28;20485;-73
2020/12/15 00:04:11;;;;;;;4.32;2.60;;;;;;;5.99;84.56;99147.44;5087586;28;20096;-72
2020/12/15 00:06:37;;;;;;;4.60;2.63;;;;;;;5.90;84.87;99139.03;5090407;28;20043;-72
2020/12/15 00:09:03;;;;;;;2.95;2.17;;;;;;;6.01;84.64;99148.00;5073029;28;20030;-72
2020/12/15 00:11:28;;;;;;;3.70;2.67;;;;;;;6.02;85.01;99146.97;5069799;28;20040;-72
2020/12/15 00:13:54;;;;;;;4.28;3.33;;;;;;;6.04;84.64;99158.16;5069892;28;20032;-75
2020/12/15 00:16:19;;;;;;;6.75;3.42;;;;;;;6.03;84.41;99155.72;5069537;28;20067;-75
2020/12/15 00:18:45;;;;;;;4.25;2.72;;;;;;;6.02;84.29;99162.09;5073541;28;20119;-75
2020/12/15 00:21:18;;;;;;;4.18;2.58;;;;;;;6.01;84.55;99173.75;5089850;28;20035;-74
2020/12/15 00:23:44;;;;;;;5.80;3.92;;;;;;;6.03;84.26;99180.44;5081407;28;20045;-76
2020/12/15 00:26:09;;;;;;;4.60;3.03;;;;;;;6.01;84.20;99179.06;5069961;28;20039;-76
2020/12/15 00:28:34;;;;;;;5.82;2.97;;;;;;;6.05;84.18;99173.03;5069546;28;20035;-74
2020/12/15 00:31:00;;;;;;;5.22;2.88;;;;;;;6.04;84.01;99170.59;5071219;28;20522;-73
2020/12/15 00:33:25;;;;;;;5.85;3.55;;;;;;;6.03;83.78;99179.59;5084722;28;20032;-72
2020/12/15 00:35:50;;;;;;;3.45;2.38;;;;;;;6.04;83.82;99170.59;5070936;28;20581;-74
2020/12/15 00:38:16;;;;;;;4.35;3.33;;;;;;;6.00;83.26;99164.97;5080366;28;20047;-74
2020/12/15 00:40:41;;;;;;;7.50;4.18;;;;;;;6.04;83.33;99171.41;5087426;28;20515;-74
2020/12/15 00:43:07;;;;;;;7.50;4.00;;;;;;;6.05;83.05;99167.72;5069681;28;20170;-73
2020/12/15 00:45:32;;;;;;;6.95;3.60;;;;;;;6.01;82.84;99168.44;5069445;28;20543;-73
2020/12/15 00:47:57;;;;;;;8.43;3.53;;;;;;;6.02;83.37;99162.09;5070848;28;20109;-73
2020/12/15 00:50:23;;;;;;;5.13;3.28;;;;;;;6.01;82.87;99161.28;5075295;28;20382;-73
2020/12/15 00:52:48;;;;;;;6.18;3.42;;;;;;;6.01;83.30;99157.81;5089741;28;20127;-75
2020/12/15 00:55:13;;;;;;;7.15;3.53;;;;;;;5.97;81.99;99143.38;5081707;28;20504;-73
2020/12/15 00:57:39;;;;;;;3.25;2.72;;;;;;;5.98;81.87;99142.34;5069486;28;20554;-73
2020/12/15 01:00:10;;;;;;;4.70;2.85;;;;;;;6.05;82.20;99146.47;5070484;28;20513;-74
2020/12/15 01:02:35;;;;;;;4.38;2.90;;;;;;;6.04;81.98;99138.75;5088861;28;20028;-73
2020/12/15 01:05:00;;;;;;;5.15;2.83;;;;;;;6.02;82.17;99135.53;5075335;28;20070;-73
2020/12/15 01:07:26;;;;;;;5.13;3.50;;;;;;;6.09;81.68;99141.47;5069351;28;20028;-74
2020/12/15 01:09:51;;;;;;;6.28;3.40;;;;;;;6.14;81.24;99138.09;5079150;28;20044;-74
2020/12/15 01:12:17;;;;;;;4.70;2.80;;;;;;;6.10;81.52;99137.75;5082352;28;20117;-74
2020/12/15 01:14:42;;;;;;;6.88;3.15;;;;;;;6.11;81.51;99143.91;5089419;28;20040;-74
2020/12/15 01:17:08;;;;;;;5.65;3.40;;;;;;;6.07;81.26;99132.97;5091171;28;20028;-74
2020/12/15 01:19:34;;;;;;;6.78;4.07;;;;;;;6.08;80.97;99138.00;5085153;28;20440;-72
2020/12/15 01:22:00;;;;;;;6.10;3.50;;;;;;;6.06;81.40;99140.09;5073259;28;20089;-72
2020/12/15 01:24:25;;;;;;;5.95;3.80;;;;;;;6.06;81.65;99136.66;5072517;28;20041;-73
2020/12/15 01:26:51;;;;;;;5.43;3.28;;;;;;;6.06;81.60;99126.03;5074691;28;20086;-74
2020/12/15 01:29:17;;;;;;;7.20;3.45;;;;;;;6.06;81.36;99136.66;5092110;28;20424;-72
2020/12/15 01:31:42;;;;;;;7.65;3.58;;;;;;;6.08;81.36;99138.00;5093009;28;20043;-74
2020/12/15 01:34:08;;;;;;;6.20;3.10;;;;;;;6.09;81.07;99136.16;5084341;28;20120;-74
2020/12/15 01:36:33;;;;;;;6.65;3.60;;;;;;;6.09;81.06;99144.13;5072749;28;20476;-75
2020/12/15 01:38:59;;;;;;;5.15;3.30;;;;;;;6.05;80.85;99132.38;5105048;28;20089;-73
2020/12/15 01:41:25;;;;;;;6.18;3.22;;;;;;;6.12;80.91;99148.16;5094271;28;20036;-74
2020/12/15 01:43:58;;;;;;;6.50;3.67;;;;;;;6.05;80.60;99140.34;5091092;28;20113;-74
2020/12/15 01:46:25;;;;;;;4.50;3.20;;;;;;;6.13;80.26;99153.22;5087682;28;20032;-74
2020/12/15 01:48:52;;;;;;;4.45;2.97;;;;;;;6.15;79.98;99156.44;5093013;28;20031;-72
2020/12/15 01:51:18;;;;;;;7.88;3.13;;;;;;;6.10;79.62;99148.38;5094042;28;20111;-73
2020/12/15 01:53:45;;;;;;;5.60;3.58;;;;;;;6.16;80.38;99159.91;5086444;28;20063;-73
2020/12/15 01:56:11;;;;;;;6.95;3.85;;;;;;;6.16;80.02;99152.72;5092745;28;20059;-73
2020/12/15 01:58:40;;;;;;;7.28;4.43;;;;;;;6.17;80.22;99156.19;5093956;28;20623;-72
2020/12/15 02:01:07;;;;;;;5.70;3.97;;;;;;;6.19;80.08;99165.53;5094078;28;20055;-73
2020/12/15 02:03:32;;;;;;;7.13;3.70;;;;;;;6.19;80.18;99164.69;5092505;28;20020;-74
2020/12/15 02:05:58;;;;;;;7.57;3.63;;;;;;;6.15;80.68;99153.78;5080308;28;20399;-73
2020/12/15 02:08:23;;;;;;;4.32;2.88;;;;;;;6.16;80.88;99157.25;5092065;28;20028;-77
2020/12/15 02:10:49;;;;;;;6.05;4.20;;;;;;;6.16;80.45;99160.69;5079452;28;20043;-74
2020/12/15 02:13:15;;;;;;;4.97;3.10;;;;;;;6.17;80.33;99159.66;5075051;28;20036;-74
2020/12/15 02:15:40;;;;;;;8.05;3.17;;;;;;;6.17;80.33;99153.53;5092242;28;20469;-75
2020/12/15 02:18:06;;;;;;;3.88;2.70;;;;;;;6.06;79.62;99137.44;5092406;28;20126;-74
2020/12/15 02:20:32;;;;;;;6.63;3.72;;;;;;;6.16;79.47;99166.00;5093460;28;20040;-74
2020/12/15 02:22:57;;;;;;;5.90;3.35;;;;;;;6.16;80.22;99168.66;5092412;28;20024;-73
2020/12/15 02:25:23;;;;;;;4.43;2.95;;;;;;;6.15;79.71;99160.94;5090571;28;20394;-73
2020/12/15 02:27:48;;;;;;;4.53;3.03;;;;;;;6.19;79.61;99170.00;5072473;28;20028;-74
2020/12/15 02:30:14;;;;;;;7.15;4.03;;;;;;;6.14;79.45;99167.28;5071542;28;20416;-72
2020/12/15 02:32:39;;;;;;;4.57;3.05;;;;;;;6.19;79.78;99170.00;5074342;28;20033;-71
2020/12/15 02:35:04;;;;;;;5.93;3.40;;;;;;;6.21;79.97;99170.59;5087999;28;20116;-73
2020/12/15 02:37:31;;;;;;;5.80;3.08;;;;;;;6.06;79.62;99157.91;5091860;28;20035;-72
2020/12/15 02:40:06;;;;;;;4.95;3.45;;;;;;;6.21;79.32;99167.94;5084489;28;20032;-72
2020/12/15 02:42:32;;;;;;;4.60;2.97;;;;;;;6.20;79.35;99174.28;5092744;28;20036;-72
2020/12/15 02:44:58;;;;;;;5.25;3.17;;;;;;;6.23;79.31;99173.81;5093300;28;20024;-73
2020/12/15 02:47:23;;;;;;;6.50;3.85;;;;;;;6.29;79.26;99180.00;5093165;28;20481;-74
2020/12/15 02:49:50;;;;;;;4.00;2.83;;;;;;;6.23;79.56;99179.13;5093094;28;20055;-74
2020/12/15 02:52:15;;;;;;;5.13;3.67;;;;;;;6.21;78.96;99175.91;5088620;28;20450;-73
2020/12/15 02:54:41;;;;;;;4.95;3.47;;;;;;;6.27;78.78;99182.09;5072401;28;20029;-74
2020/12/15 02:57:07;;;;;;;8.65;4.40;;;;;;;6.27;79.46;99180.22;5071488;28;20417;-72
2020/12/15 02:59:32;;;;;;;7.03;3.88;;;;;;;6.21;79.36;99178.53;5072511;28;20028;-71
2020/12/15 03:01:58;;;;;;;6.50;4.13;;;;;;;6.21;78.72;99179.38;5072688;28;20031;-72
2020/12/15 03:04:23;;;;;;;5.57;3.08;;;;;;;6.23;79.16;99179.13;5072345;28;20073;-75
2020/12/15 03:06:49;;;;;;;5.13;3.50;;;;;;;6.18;78.45;99179.84;5071277;28;20444;-73
2020/12/15 03:09:14;;;;;;;7.55;3.97;;;;;;;6.20;78.74;99188.38;5071172;28;20473;-73
2020/12/15 03:11:40;;;;;;;5.82;3.60;;;;;;;6.21;78.60;99191.81;5070898;28;20032;-73
2020/12/15 03:14:06;;;;;;;6.60;3.90;;;;;;;6.12;78.81;99185.34;5078153;28;20024;-72
2020/12/15 03:16:31;;;;;;;7.80;3.80;;;;;;;6.19;79.16;99199.22;5091937;28;20028;-72
2020/12/15 03:18:57;;;;;;;6.57;3.88;;;;;;;6.20;79.12;99199.00;5091344;28;20063;-73
2020/12/15 03:21:23;;;;;;;5.32;3.35;;;;;;;6.20;78.99;99204.31;5090271;28;20020;-73
2020/12/15 03:23:50;;;;;;;5.30;3.53;;;;;;;6.22;79.08;99210.16;5091033;28;20048;-72
2020/12/15 03:26:17;;;;;;;5.57;3.33;;;;;;;6.16;79.24;99199.72;5092465;28;20028;-71
2020/12/15 03:28:42;;;;;;;4.30;3.33;;;;;;;6.21;79.44;99211.25;5078563;28;20040;-72
2020/12/15 03:31:07;;;;;;;5.78;3.97;;;;;;;6.16;79.06;99202.38;5070830;28;20087;-72
2020/12/15 03:33:33;;;;;;;5.05;3.33;;;;;;;6.14;78.63;99205.28;5076302;28;20111;-72
2020/12/15 03:35:58;;;;;;;5.65;3.40;;;;;;;6.14;78.83;99209.78;5085171;28;20024;-71
2020/12/15 03:38:24;;;;;;;6.43;3.55;;;;;;;6.15;79.06;99211.38;5092286;28;20032;-71
2020/12/15 03:40:49;;;;;;;5.82;3.83;;;;;;;6.12;79.08;99210.03;5073293;28;20033;-71
2020/12/15 03:43:15;;;;;;;3.58;2.90;;;;;;;6.21;78.86;99227.16;5071865;28;20086;-73
2020/12/15 03:45:44;;;;;;;4.47;3.08;;;;;;;6.22;78.59;99235.94;5070318;28;20029;-72
2020/12/15 03:48:10;;;;;;;5.78;3.88;;;;;;;6.20;78.63;99232.69;5070485;28;20056;-72
2020/12/15 03:50:36;;;;;;;4.88;3.42;;;;;;;6.19;78.48;99237.22;5071480;28;20086;-71
2020/12/15 03:53:02;;;;;;;5.22;3.30;;;;;;;6.22;78.37;99246.56;5071715;28;20033;-72
2020/12/15 03:55:27;;;;;;;4.45;3.45;;;;;;;6.23;78.61;99254.28;5070221;28;20052;-72
2020/12/15 03:57:53;;;;;;;4.57;3.65;;;;;;;6.21;78.38;99247.59;5070157;28;20032;-72
2020/12/15 04:00:19;;;;;;;6.28;3.95;;;;;;;6.28;78.54;99260.72;5070211;28;20135;-72
2020/12/15 04:02:45;;;;;;;5.65;3.35;;;;;;;6.29;78.22;99257.03;5069990;28;20089;-74
2020/12/15 04:05:11;;;;;;;5.45;3.20;;;;;;;6.31;77.86;99262.88;5079723;28;20040;-74
2020/12/15 04:07:36;;;;;;;5.90;3.45;;;;;;;6.33;78.59;99268.78;5089032;28;20036;-74
2020/12/15 04:10:06;;;;;;;5.20;3.28;;;;;;;6.30;78.64;99264.75;5091353;28;20062;-74
2020/12/15 04:12:31;;;;;;;6.53;3.65;;;;;;;6.34;78.02;99262.41;5090060;28;20031;-74
2020/12/15 04:14:56;;;;;;;4.18;3.20;;;;;;;6.36;78.24;99278.91;5087402;28;20032;-74
2020/12/15 04:17:22;;;;;;;8.27;3.90;;;;;;;6.36;78.26;99276.25;5071319;28;20051;-74
2020/12/15 04:19:48;;;;;;;9.93;3.90;;;;;;;6.34;78.48;99267.72;5071038;28;20103;-73
2020/12/15 04:22:14;;;;;;;7.18;3.67;;;;;;;6.39;78.20;99281.88;5071573;28;20474;-74
2020/12/15 04:24:39;;;;;;;5.35;3.25;;;;;;;6.41;78.45;99281.66;5091410;28;20052;-74
2020/12/15 04:27:04;;;;;;;4.43;3.30;;;;;;;6.44;77.98;99289.13;5090065;28;20503;-74
2020/12/15 04:29:30;;;;;;;4.72;3.30;;;;;;;6.39;77.81;99295.16;5088986;28;20043;-74
2020/12/15 04:31:57;;;;;;;4.43;3.03;;;;;;;6.38;77.89;99284.78;5090003;28;20047;-75
2020/12/15 04:34:22;;;;;;;5.40;3.30;;;;;;;6.43;78.33;99297.34;5089866;28;20055;-74
2020/12/15 04:36:48;;;;;;;5.20;3.22;;;;;;;6.44;77.84;99307.72;5089932;28;20035;-74
2020/12/15 04:39:13;;;;;;;4.88;3.53;;;;;;;6.44;77.83;99304.28;5074317;28;20404;-73
2020/12/15 04:41:38;;;;;;;5.00;3.70;;;;;;;6.45;77.88;99305.88;5069391;28;20549;-73
2020/12/15 04:44:04;;;;;;;3.35;2.97;;;;;;;6.46;78.31;99310.13;5069499;28;20029;-74
2020/12/15 04:46:36;;;;;;;7.25;3.30;;;;;;;6.49;78.10;99309.66;5069377;28;20115;-75
2020/12/15 04:49:04;;;;;;;5.22;3.25;;;;;;;6.48;78.34;99316.00;5069568;28;20477;-76
2020/12/15 04:51:40;;;;;;;5.03;3.40;;;;;;;6.48;77.73;99319.50;5074862;28;20504;-75
2020/12/15 04:54:14;;;;;;;5.13;3.17;;;;;;;6.47;78.38;99320.53;5089705;28;20127;-76
2020/12/15 04:56:42;;;;;;;6.15;4.10;;;;;;;6.51;77.89;99320.84;5069450;28;20055;-76
2020/12/15 04:59:11;;;;;;;8.18;3.35;;;;;;;6.44;77.77;99307.72;5069464;28;20105;-74
2020/12/15 05:01:39;;;;;;;4.95;4.05;;;;;;;6.48;78.23;99322.16;5069394;28;20446;-76
2020/12/15 05:04:05;;;;;;;5.93;3.38;;;;;;;6.50;77.97;99325.34;5084735;28;20096;-75
2020/12/15 05:06:32;;;;;;;6.28;3.75;;;;;;;6.50;78.29;99333.31;5088625;28;20035;-75
2020/12/15 05:08:58;;;;;;;5.03;3.20;;;;;;;6.49;77.35;99337.00;5089139;28;20028;-74
2020/12/15 05:11:23;;;;;;;6.50;3.85;;;;;;;6.41;78.42;99322.28;5089555;28;20024;-73
2020/12/15 05:13:49;;;;;;;4.82;3.58;;;;;;;6.48;77.67;99339.91;5089304;28;20520;-72
2020/12/15 05:16:15;;;;;;;5.55;3.25;;;;;;;6.48;78.01;99335.44;5090657;28;20024;-74
2020/12/15 05:18:41;;;;;;;7.78;3.55;;;;;;;6.41;77.89;99335.56;5089037;28;20088;-73
2020/12/15 05:21:16;;;;;;;4.97;3.03;;;;;;;6.46;78.27;99339.34;5089215;28;20032;-73
2020/12/15 05:23:54;;;;;;;3.80;3.15;;;;;;;6.41;77.80;99330.25;5070042;28;20041;-74
2020/12/15 05:26:24;;;;;;;7.17;3.83;;;;;;;6.48;78.04;99348.72;5070369;28;20036;-74
2020/12/15 05:29:17;;;;;;;4.35;3.55;;;;;;;6.50;78.32;99356.44;5070216;28;20500;-75
2020/12/15 05:31:43;;;;;;;6.32;4.20;;;;;;;6.49;77.98;99355.63;5088221;28;20024;-73
2020/12/15 05:34:11;;;;;;;5.88;2.70;;;;;;;6.51;77.79;99352.75;5090642;28;20035;-73
2020/12/15 05:36:47;;;;;;;;;;;;;;;6.52;77.74;99362.31;5080054;28;20408;-73
2020/12/15 05:39:13;;;;;;;6.18;3.60;;;;;;;6.43;77.60;99345.94;5069121;28;20022;-80
2020/12/15 05:41:39;;;;;;;5.93;3.50;;;;;;;6.50;78.11;99367.84;5070150;28;20028;-71
2020/12/15 05:44:05;;;;;;;4.50;3.22;;;;;;;6.51;78.11;99366.03;5069126;28;20024;-72
2020/12/15 05:46:31;;;;;;;5.65;3.47;;;;;;;6.48;77.79;99369.97;5080339;28;20036;-72
2020/12/15 05:49:04;;;;;;;7.45;3.67;;;;;;;6.54;77.45;99378.81;5072055;28;20123;-72
2020/12/15 05:51:43;;;;;;;6.10;3.40;;;;;;;6.57;77.42;99383.66;5068796;28;20051;-73
2020/12/15 05:54:13;;;;;;;5.03;3.55;;;;;;;6.51;77.84;99376.66;5068927;28;20048;-72
2020/12/15 05:56:40;;;;;;;5.50;3.65;;;;;;;6.52;77.50;99375.63;5069935;28;20124;-72
2020/12/15 05:59:19;;;;;;;5.50;3.78;;;;;;;6.46;77.62;99369.41;5069746;28;20545;-72
2020/12/15 06:02:02;;;;;;;5.45;3.97;;;;;;;6.64;77.71;99383.50;5074671;28;20043;-72
2020/12/15 06:04:27;;;;;;;4.78;3.55;;;;;;;6.63;77.51;99385.34;5077663;28;20028;-72
2020/12/15 06:06:54;;;;;;;10.00;5.43;;;;;;;6.66;77.01;99389.38;5079257;28;20038;-72
2020/12/15 06:09:19;;;;;;;6.10;4.57;;;;;;;6.68;76.99;99393.41;5093480;28;20165;-72
2020/12/15 06:11:47;;;;;;;9.00;4.90;;;;;;;6.68;77.62;99387.28;5093525;28;20468;-71
2020/12/15 06:14:14;;;;;;;14.27;8.95;;;;;;;6.74;77.44;99402.28;5088240;28;20020;-71
2020/12/15 06:16:40;;;;;;;8.32;5.00;;;;;;;6.72;76.57;99402.50;5072805;28;20033;-72
2020/12/15 06:19:11;;;;;;;6.15;4.13;;;;;;;6.60;76.83;99385.81;5073645;28;20039;-73
2020/12/15 06:21:40;;;;;;;6.10;3.28;;;;;;;6.70;76.57;99393.97;5073505;28;20108;-73
2020/12/15 06:24:05;;;;;;;3.22;2.85;;;;;;;6.75;76.53;99411.88;5073493;28;20141;-73
2020/12/15 06:26:32;;;;;;;4.88;3.53;;;;;;;6.78;76.83;99419.34;5070973;28;20111;-72
2020/12/15 06:29:04;;;;;;;9.60;5.78;;;;;;;6.73;76.33;99409.44;5072206;28;20479;-73
2020/12/15 06:31:32;;;;;;;6.78;4.10;;;;;;;6.79;76.18;99418.28;5071178;28;20032;-74
2020/12/15 06:33:59;;;;;;;4.78;3.13;;;;;;;6.76;76.26;99416.09;5081791;28;20024;-73
2020/12/15 06:36:26;;;;;;;4.45;3.28;;;;;;;6.80;76.29;99419.91;5092154;28;20888;-73
2020/12/15 06:38:51;;;;;;;6.72;3.90;;;;;;;6.75;76.05;99411.88;5092523;28;20062;-73
2020/12/15 06:41:21;;;;;;;4.50;3.47;;;;;;;6.81;76.33;99420.69;5088286;28;20043;-72
2020/12/15 06:43:46;;;;;;;4.88;3.38;;;;;;;6.81;76.00;99431.34;5084495;28;20078;-72
2020/12/15 06:46:12;;;;;;;5.30;3.38;;;;;;;6.81;76.24;99428.69;5090801;28;20044;-73
2020/12/15 06:48:38;;;;;;;5.25;3.50;;;;;;;6.82;76.23;99423.16;5091241;28;20028;-72
2020/12/15 06:51:05;;;;;;;7.15;3.70;;;;;;;6.83;75.57;99426.59;5090743;28;20408;-71
2020/12/15 06:53:31;;;;;;;5.57;3.50;;;;;;;6.93;76.32;99432.06;5084636;28;20086;-71
2020/12/15 06:56:04;;;;;;;3.83;2.95;;;;;;;7.00;75.98;99439.88;5070372;28;20020;-71
2020/12/15 06:58:30;;;;;;;6.88;3.70;;;;;;;6.98;75.95;99436.66;5072004;28;20021;-71
2020/12/15 07:00:56;;;;;;;5.65;3.50;;;;;;;7.01;75.45;99434.31;5083085;28;20514;-71
2020/12/15 07:03:54;;;;;;;5.90;3.95;;;;;;;7.16;75.59;99440.91;5085003;28;20503;-71
2020/12/15 07:06:19;;;;;;;7.25;3.80;;;;;;;7.19;75.81;99443.13;5071520;28;20036;-71
2020/12/15 07:08:59;;;;;;;4.13;2.83;;;;;;;7.26;75.35;99441.06;5091940;28;20035;-73
2020/12/15 07:11:26;;;;;;;6.78;4.07;;;;;;;7.30;75.20;99449.34;5092697;28;20111;-72
2020/12/15 07:14:00;;;;;;;5.95;4.00;;;;;;;7.34;74.97;99450.50;5090627;28;20020;-74
2020/12/15 07:16:27;;;;;;;5.75;3.47;;;;;;;7.43;74.75;99454.34;5093441;28;20040;-72
2020/12/15 07:18:53;;;;;;;6.63;3.40;;;;;;;7.45;74.23;99460.22;5104251;28;20035;-72
2020/12/15 07:21:19;;;;;;;5.43;3.40;;;;;;;7.51;74.03;99459.25;5087856;28;20049;-73
2020/12/15 07:23:48;;;;;;;5.38;2.92;;;;;;;7.52;74.52;99466.19;5083689;28;20043;-73
2020/12/15 07:26:18;;;;;;;5.45;3.30;;;;;;;7.59;74.18;99475.84;5087897;28;20500;-73
2020/12/15 07:28:48;;;;;;;4.13;3.22;;;;;;;7.61;74.07;99474.56;5090741;28;20024;-74
2020/12/15 07:31:29;;;;;;;5.80;2.97;;;;;;;7.64;74.07;99473.25;5089002;28;20807;-73
2020/12/15 07:34:11;;;;;;;6.18;2.67;;;;;;;7.66;73.40;99476.47;5091544;28;20499;-74
2020/12/15 07:36:39;;;;;;;3.83;2.47;;;;;;;7.68;73.19;99482.38;5085393;28;20028;-73
2020/12/15 07:39:05;;;;;;;5.03;2.97;;;;;;;7.70;73.24;99474.94;5084765;28;20027;-74
2020/12/15 07:41:36;;;;;;;3.85;2.60;;;;;;;7.74;73.16;99480.56;5090964;28;20036;-74
2020/12/15 07:44:14;;;;;;;4.63;2.67;;;;;;;7.78;72.55;99484.38;5090933;28;20032;-73
2020/12/15 07:46:45;;;;;;;4.22;2.72;;;;;;;7.80;72.65;99487.56;5075176;28;20040;-71
2020/12/15 07:49:10;;;;;;;6.13;2.95;;;;;;;7.82;73.00;99488.97;5083812;28;20069;-72
2020/12/15 07:51:39;;;;;;;5.25;2.72;;;;;;;7.85;73.28;99493.78;5091826;28;20027;-71
2020/12/15 07:54:05;;;;;;;2.65;2.20;;;;;;;7.83;73.05;99476.44;5071674;28;20098;-72
2020/12/15 07:56:31;;;;;;;4.38;2.45;;;;;;;7.90;72.00;99495.69;5083040;28;20036;-72
2020/12/15 07:58:58;;;;;;;3.20;2.22;;;;;;;7.89;72.00;99486.09;5090873;28;20028;-72
2020/12/15 08:01:26;;;;;;;3.53;2.40;;;;;;;7.89;72.13;99486.09;5091454;28;20123;-72
2020/12/15 08:04:09;;;;;;;4.60;2.87;;;;;;;7.95;72.01;99486.97;5091527;28;20099;-72
2020/12/15 08:06:39;;;;;;;4.68;2.90;;;;;;;8.02;71.67;99490.25;5091520;28;20027;-73
2020/12/15 08:09:05;;;;;;;5.50;2.88;;;;;;;7.98;71.98;99487.28;5086509;28;20031;-72
2020/12/15 08:11:31;;;;;;;4.85;2.65;;;;;;;8.07;71.36;99495.66;5098468;28;20086;-72
2020/12/15 08:14:02;;;;;;;6.70;3.33;;;;;;;8.01;72.07;99494.78;5109487;28;20516;-74
2020/12/15 08:16:28;;;;;;;5.68;2.95;;;;;;;8.16;71.51;99504.00;5097289;28;20067;-74
2020/12/15 08:18:59;;;;;;;5.40;2.85;;;;;;;8.21;71.47;99497.94;5081883;28;20059;-73
2020/12/15 08:21:37;;;;;;;3.03;2.10;;;;;;;8.20;70.84;99496.31;5099762;28;20026;-72
2020/12/15 08:24:05;;;;;;;3.83;2.55;;;;;;;8.22;71.18;99500.34;5111412;28;20481;-72
2020/12/15 08:26:33;;;;;;;4.07;3.03;;;;;;;8.31;71.47;99498.03;5111392;28;20496;-72
2020/12/15 08:29:11;;;;;;;4.90;3.08;;;;;;;8.30;71.36;99493.75;5111709;28;20038;-71
2020/12/15 08:31:38;;;;;;;4.05;2.80;;;;;;;8.34;71.33;99498.34;5094885;28;20042;-72
2020/12/15 08:34:15;;;;;;;3.78;2.72;;;;;;;8.39;70.91;99497.59;5074676;28;20466;-73
2020/12/15 08:36:46;;;;;;;4.63;2.47;;;;;;;8.39;70.57;99488.81;5069675;28;20067;-71
2020/12/15 08:39:14;;;;;;;3.67;2.95;;;;;;;8.46;70.83;99495.56;5074537;28;20027;-71
2020/12/15 08:42:08;;;;;;;6.00;3.22;;;;;;;8.54;70.92;99502.31;5094237;28;20032;-73
2020/12/15 08:44:35;;;;;;;3.35;2.75;;;;;;;8.55;70.89;99509.25;5076446;28;20513;-72
2020/12/15 08:47:00;;;;;;;4.30;2.67;;;;;;;8.62;71.46;99512.53;5083390;28;20028;-72
2020/12/15 08:49:27;;;;;;;5.30;3.33;;;;;;;8.62;70.86;99507.19;5074367;28;20031;-74
2020/12/15 08:51:54;;;;;;;6.30;4.13;;;;;;;8.65;70.55;99503.22;5070260;28;20029;-73
2020/12/15 08:54:20;;;;;;;5.07;4.03;;;;;;;8.73;70.84;99513.44;5072832;28;20492;-72
2020/12/15 08:56:46;;;;;;;4.80;3.47;;;;;;;8.79;71.02;99508.97;5087435;28;20043;-71
2020/12/15 08:59:13;;;;;;;5.05;3.38;;;;;;;8.80;70.53;99500.72;5090856;28;20487;-72
2020/12/15 09:01:40;;;;;;;5.07;2.95;;;;;;;8.84;70.49;99497.53;5089220;28;20512;-72
2020/12/15 09:04:06;;;;;;;3.50;2.75;;;;;;;8.84;69.74;99494.84;5081124;28;20082;-74
2020/12/15 09:06:32;;;;;;;4.32;2.90;;;;;;;8.93;70.55;99498.69;5074918;28;20033;-74
2020/12/15 09:08:58;;;;;;;4.32;2.92;;;;;;;8.95;70.25;99496.56;5069157;28;20048;-74
2020/12/15 09:11:23;;;;;;;8.10;3.65;;;;;;;8.96;69.76;99493.66;5070563;28;20056;-74
2020/12/15 09:13:56;;;;;;;6.35;4.15;;;;;;;8.96;70.19;99500.84;5069036;28;20116;-74
2020/12/15 09:16:34;;;;;;;6.45;3.70;;;;;;;9.03;70.44;99495.28;5069050;28;20393;-73
2020/12/15 09:19:23;;;;;;;5.97;3.90;;;;;;;9.08;70.74;99488.16;5069035;28;20067;-73
2020/12/15 09:21:56;;;;;;;6.50;3.15;;;;;;;9.11;69.99;99492.16;5068617;28;20067;-73
2020/12/15 09:24:22;;;;;;;13.20;6.15;;;;;;;9.14;69.53;99483.63;5070340;28;20051;-73
2020/12/15 09:26:47;;;;;;;7.13;4.72;;;;;;;9.23;69.06;99489.31;5068619;28;20032;-73
2020/12/15 09:29:12;;;;;;;5.03;3.53;;;;;;;9.26;69.42;99488.81;5070504;28;20554;-73
2020/12/15 09:31:39;;;;;;;6.72;3.97;;;;;;;9.25;69.22;99481.84;5068928;28;20017;-73
2020/12/15 09:34:06;;;;;;;7.63;4.43;;;;;;;9.32;69.80;99476.31;5070711;28;20037;-74
2020/12/15 09:36:34;;;;;;;7.30;3.97;;;;;;;9.35;68.72;99470.44;5070295;28;20078;-74
2020/12/15 09:38:59;;;;;;;8.18;3.90;;;;;;;9.42;68.84;99471.03;5071848;28;20021;-74
2020/12/15 09:41:25;;;;;;;4.97;3.25;;;;;;;9.49;69.80;99474.28;5073102;28;20035;-74
2020/12/15 09:43:50;;;;;;;6.07;3.38;;;;;;;9.55;68.58;99467.91;5092723;28;20028;-74
2020/12/15 09:46:16;;;;;;;3.20;2.88;;;;;;;9.53;68.50;99462.03;5094511;28;20035;-74
2020/12/15 09:48:42;;;;;;;4.97;3.42;;;;;;;9.62;68.61;99467.69;5093755;28;20028;-74
2020/12/15 09:51:11;;;;;;;6.68;3.55;;;;;;;9.69;69.04;99475.44;5094235;28;20392;-74
2020/12/15 09:53:36;;;;;;;4.07;3.33;;;;;;;9.68;68.48;99466.63;5092751;28;20028;-74
2020/12/15 09:56:02;;;;;;;11.73;6.78;;;;;;;9.81;68.80;99465.34;5093857;28;20081;-74
2020/12/15 09:58:28;;;;;;;7.35;3.90;;;;;;;9.87;68.09;99464.31;5092681;28;20032;-74
2020/12/15 10:00:54;;;;;;;2.88;2.35;;;;;;;9.89;67.48;99461.41;5092480;28;20024;-74
2020/12/15 10:03:19;;;;;;;4.25;2.97;;;;;;;9.91;67.53;99457.41;5092621;28;20028;-74
2020/12/15 10:05:45;;;;;;;8.98;4.40;;;;;;;9.98;68.12;99459.81;5092379;28;20020;-74
2020/12/15 10:08:10;;;;;;;6.80;3.80;;;;;;;10.05;67.09;99454.25;5092571;28;20032;-74
2020/12/15 10:10:36;;;;;;;5.18;3.60;;;;;;;10.15;67.95;99459.59;5092485;28;20028;-74
2020/12/15 10:13:01;;;;;;;3.85;3.08;;;;;;;10.13;66.69;99444.91;5107748;28;20122;-74
2020/12/15 10:15:27;;;;;;;5.07;3.20;;;;;;;10.24;66.22;99446.53;5114208;28;20031;-74
2020/12/15 10:17:53;;;;;;;6.10;3.92;;;;;;;10.22;66.73;99444.13;5112240;28;20114;-74
2020/12/15 10:20:19;;;;;;;4.05;3.25;;;;;;;10.25;66.48;99446.28;5112743;28;20553;-74
2020/12/15 10:22:44;;;;;;;4.45;3.08;;;;;;;10.25;64.69;99450.81;5112610;28;20036;-74
2020/12/15 10:25:10;;;;;;;5.78;3.42;;;;;;;10.25;65.72;99456.16;5112583;28;20112;-74
2020/12/15 10:27:35;;;;;;;5.05;3.65;;;;;;;10.26;66.20;99441.72;5112702;28;20023;-74
2020/12/15 10:30:01;;;;;;;6.55;3.00;;;;;;;10.29;66.30;99443.06;5112412;28;20458;-74
2020/12/15 10:32:27;;;;;;;4.53;3.10;;;;;;;10.32;65.34;99437.22;5113895;28;20023;-74
2020/12/15 10:34:52;;;;;;;7.25;3.28;;;;;;;10.31;65.24;99439.06;5113581;28;20536;-74
2020/12/15 10:37:22;;;;;;;7.53;4.78;;;;;;;10.35;66.21;99445.50;5112317;28;20034;-74
2020/12/15 10:39:48;;;;;;;3.63;3.15;;;;;;;10.35;65.96;99442.81;5113435;28;20028;-74
2020/12/15 10:42:14;;;;;;;6.57;3.90;;;;;;;10.37;65.24;99446.06;5112457;28;20423;-74
2020/12/15 10:44:40;;;;;;;5.00;3.13;;;;;;;10.42;65.13;99442.59;5112372;28;20502;-74
2020/12/15 10:47:05;;;;;;;4.97;3.47;;;;;;;10.44;65.38;99443.13;5112179;28;20020;-74
2020/12/15 10:49:31;;;;;;;4.90;3.58;;;;;;;10.39;65.01;99443.13;5112717;28;20031;-74
2020/12/15 10:51:56;;;;;;;5.88;3.70;;;;;;;10.37;65.17;99430.00;5113677;28;20422;-74
2020/12/15 10:54:22;;;;;;;6.25;4.07;;;;;;;10.45;65.29;99441.25;5112219;28;20404;-74
2020/12/15 10:56:47;;;;;;;5.53;3.78;;;;;;;10.46;65.35;99446.34;5113215;28;20140;-74
2020/12/15 10:59:13;;;;;;;8.45;5.07;;;;;;;10.44;66.10;99440.47;5111990;28;20028;-74
2020/12/15 11:01:38;;;;;;;7.07;4.35;;;;;;;10.45;65.16;99439.41;5113435;28;20377;-74
2020/12/15 11:04:04;;;;;;;7.00;4.45;;;;;;;10.45;64.78;99435.91;5112747;28;20077;-75
2020/12/15 11:06:31;;;;;;;5.65;4.00;;;;;;;10.45;65.79;99438.59;5111985;28;20110;-74
2020/12/15 11:08:56;;;;;;;4.97;3.88;;;;;;;10.44;64.86;99437.00;5113292;28;20472;-74
2020/12/15 11:11:22;;;;;;;6.63;4.47;;;;;;;10.42;64.72;99426.53;5111760;28;20085;-74
2020/12/15 11:13:47;;;;;;;11.15;5.63;;;;;;;10.44;64.68;99434.31;5112962;28;20028;-74
2020/12/15 11:16:13;;;;;;;11.00;6.22;;;;;;;10.47;64.59;99437.25;5111533;28;20019;-74
2020/12/15 11:18:38;;;;;;;6.40;3.30;;;;;;;10.52;65.03;99425.75;5111595;28;20488;-74
2020/12/15 11:21:04;;;;;;;5.18;3.78;;;;;;;10.55;64.50;99428.69;5111252;28;20023;-74
2020/12/15 11:23:30;;;;;;;5.25;3.90;;;;;;;10.57;65.22;99421.22;5111307;28;20047;-74
2020/12/15 11:25:55;;;;;;;3.95;2.95;;;;;;;10.60;65.10;99411.06;5112510;28;20028;-74
2020/12/15 11:28:21;;;;;;;6.82;4.15;;;;;;;10.66;63.97;99424.16;5111409;28;20031;-74
2020/12/15 11:30:46;;;;;;;4.72;3.35;;;;;;;10.66;63.41;99408.13;5111257;28;20019;-74
2020/12/15 11:33:12;;;;;;;5.93;3.67;;;;;;;10.67;62.84;99425.78;5111357;28;20084;-74
2020/12/15 11:35:37;;;;;;;3.83;2.90;;;;;;;10.69;63.26;99429.00;5112491;28;20020;-74
2020/12/15 11:38:04;;;;;;;4.75;3.20;;;;;;;10.70;62.40;99424.44;5112400;28;20035;-74
2020/12/15 11:40:30;;;;;;;4.43;2.95;;;;;;;10.74;62.69;99430.84;5112690;28;20024;-74
2020/12/15 11:42:57;;;;;;;4.65;3.33;;;;;;;10.78;62.63;99425.75;5111118;28;20427;-74